Time;durP1;ratioP1;P1;durP2;ratioP2;P2;SDS_P1;SDS_P2;PMS_P1;PMS_P2;Temp;Humidity;BMP_temperature;BMP_pressure;BME280_temperature;BME280_humidity;BME280_pressure;Samples;Min_cycle;Max_cycle;Signal;HPM_P1;HPM_P2
2023/02/20 00:02:18;;;;;;;28.42;3.90;;;;;;;;;;4992016;28;20026;-44
2023/02/20 00:04:47;;;;;;;20.77;3.72;;;;;;;;;;4991447;28;20038;-44
2023/02/20 00:07:14;;;;;;;28.15;4.55;;;;;;;;;;4991911;28;20034;-44
2023/02/20 00:09:41;;;;;;;31.50;4.55;;;;;;;;;;4991803;28;20038;-43
2023/02/20 00:12:08;;;;;;;21.40;4.10;;;;;;;;;;4991875;28;20030;-43
2023/02/20 00:14:35;;;;;;;23.15;3.83;;;;;;;;;;4991867;28;20058;-44
2023/02/20 00:17:02;;;;;;;24.42;4.00;;;;;;;;;;4991751;28;20499;-43
2023/02/20 00:19:29;;;;;;;20.52;3.63;;;;;;;;;;4991737;28;20373;-43
2023/02/20 00:21:56;;;;;;;16.48;3.38;;;;;;;;;;4991719;28;20129;-43
2023/02/20 00:24:23;;;;;;;31.83;4.28;;;;;;;;;;4990448;28;20034;-44
2023/02/20 00:26:51;;;;;;;22.73;4.03;;;;;;;;;;4991826;28;20384;-44
2023/02/20 00:29:22;;;;;;;25.10;4.07;;;;;;;;;;4991667;28;20038;-43
2023/02/20 00:31:56;;;;;;;24.77;3.80;;;;;;;;;;4990155;28;20407;-44
2023/02/20 00:34:24;;;;;;;22.73;4.22;;;;;;;;;;4991687;28;20030;-43
2023/02/20 00:36:51;;;;;;;14.57;3.20;;;;;;;;;;4991485;28;20600;-43
2023/02/20 00:39:18;;;;;;;25.80;3.50;;;;;;;;;;4991651;28;20101;-44
2023/02/20 00:41:45;;;;;;;21.65;3.88;;;;;;;;;;4990166;28;20481;-44
2023/02/20 00:44:12;;;;;;;22.80;3.75;;;;;;;;;;4991345;28;20022;-44
2023/02/20 00:46:39;;;;;;;25.70;3.53;;;;;;;;;;4991476;28;20053;-43
2023/02/20 00:49:06;;;;;;;24.98;4.00;;;;;;;;;;4991199;28;20539;-50
2023/02/20 00:51:35;;;;;;;28.23;3.58;;;;;;;;;;4991517;28;20036;-44
2023/02/20 00:54:02;;;;;;;24.92;4.40;;;;;;;;;;4991388;28;20042;-43
2023/02/20 00:56:29;;;;;;;18.73;3.85;;;;;;;;;;4991298;28;20019;-44
2023/02/20 00:58:56;;;;;;;20.92;3.63;;;;;;;;;;4991467;28;20022;-43
2023/02/20 01:01:23;;;;;;;21.80;3.65;;;;;;;;;;4991406;28;20035;-43
2023/02/20 01:03:50;;;;;;;21.17;3.90;;;;;;;;;;4991442;28;20022;-43
2023/02/20 01:06:18;;;;;;;20.42;3.80;;;;;;;;;;4991196;28;20532;-43
2023/02/20 01:08:45;;;;;;;24.52;3.75;;;;;;;;;;4991240;28;20113;-44
2023/02/20 01:11:12;;;;;;;16.83;3.22;;;;;;;;;;4991310;28;20396;-43
2023/02/20 01:13:39;;;;;;;19.60;3.88;;;;;;;;;;4989755;28;20436;-43
2023/02/20 01:16:07;;;;;;;20.38;3.78;;;;;;;;;;4991221;28;20062;-43
2023/02/20 01:18:34;;;;;;;14.15;3.65;;;;;;;;;;4994368;28;20448;-43
2023/02/20 01:21:01;;;;;;;16.42;3.42;;;;;;;;;;4994914;28;20022;-43
2023/02/20 01:23:28;;;;;;;24.58;3.65;;;;;;;;;;4994959;28;20034;-44
2023/02/20 01:25:55;;;;;;;28.52;4.20;;;;;;;;;;4994838;28;20022;-43
2023/02/20 01:28:24;;;;;;;17.15;3.58;;;;;;;;;;4994755;28;20019;-43
2023/02/20 01:30:51;;;;;;;18.90;3.72;;;;;;;;;;4994823;28;20030;-43
2023/02/20 01:33:18;;;;;;;16.08;3.47;;;;;;;;;;4994687;28;20085;-43
2023/02/20 01:35:45;;;;;;;19.33;3.35;;;;;;;;;;4994576;28;20030;-43
2023/02/20 01:38:12;;;;;;;14.63;3.60;;;;;;;;;;4994613;28;20030;-44
2023/02/20 01:40:39;;;;;;;16.00;3.38;;;;;;;;;;4994706;28;20511;-43
2023/02/20 01:43:06;;;;;;;17.50;3.83;;;;;;;;;;4994623;28;20026;-43
2023/02/20 01:45:35;;;;;;;21.55;4.13;;;;;;;;;;4994461;28;20042;-43
2023/02/20 01:48:02;;;;;;;16.58;3.90;;;;;;;;;;4994354;28;20031;-43
2023/02/20 01:50:31;;;;;;;16.65;3.92;;;;;;;;;;4994262;28;20050;-43
2023/02/20 01:53:00;;;;;;;16.40;3.30;;;;;;;;;;4994453;28;20365;-43
2023/02/20 01:55:29;;;;;;;19.20;3.63;;;;;;;;;;4994150;28;20080;-43
2023/02/20 01:58:16;;;;;;;13.63;3.00;;;;;;;;;;4994363;28;20046;-43
2023/02/20 02:00:43;;;;;;;18.27;3.38;;;;;;;;;;4994155;28;20022;-43
2023/02/20 02:03:12;;;;;;;17.42;3.30;;;;;;;;;;4994072;28;20030;-44
2023/02/20 02:05:45;;;;;;;17.58;3.70;;;;;;;;;;4994092;28;20026;-43
2023/02/20 02:08:13;;;;;;;11.25;2.97;;;;;;;;;;4994091;28;20044;-44
2023/02/20 02:10:55;;;;;;;14.48;3.42;;;;;;;;;;4994075;28;20066;-44
2023/02/20 02:13:22;;;;;;;13.35;3.38;;;;;;;;;;4994232;28;20045;-44
2023/02/20 02:16:15;;;;;;;17.05;3.63;;;;;;;;;;4993876;28;20084;-44
2023/02/20 02:18:45;;;;;;;13.07;3.33;;;;;;;;;;4992205;28;20046;-44
2023/02/20 02:21:12;;;;;;;15.30;3.45;;;;;;;;;;4993678;28;20035;-44
2023/02/20 02:23:39;;;;;;;16.45;3.45;;;;;;;;;;4993797;28;20461;-43
2023/02/20 02:26:18;;;;;;;12.27;3.25;;;;;;;;;;4993643;28;20045;-44
2023/02/20 02:28:45;;;;;;;16.30;3.55;;;;;;;;;;4993177;28;20077;-43
2023/02/20 02:31:18;;;;;;;15.40;3.60;;;;;;;;;;4993668;28;20026;-44
2023/02/20 02:34:00;;;;;;;11.05;2.80;;;;;;;;;;4993462;28;20374;-44
2023/02/20 02:36:38;;;;;;;11.63;3.10;;;;;;;;;;4993459;28;20042;-44
2023/02/20 02:39:21;;;;;;;13.48;3.20;;;;;;;;;;4993541;28;20031;-44
2023/02/20 02:41:54;;;;;;;11.45;3.13;;;;;;;;;;4993358;28;20694;-44
2023/02/20 02:44:24;;;;;;;15.13;3.40;;;;;;;;;;4993345;28;20054;-45
2023/02/20 02:47:17;;;;;;;15.20;3.70;;;;;;;;;;4993368;28;20034;-44
2023/02/20 02:49:53;;;;;;;20.83;3.65;;;;;;;;;;4991310;28;20109;-44
2023/02/20 02:55:28;;;;;;;13.13;3.40;;;;;;;;;;4952008;29;20043;-44
2023/02/20 02:57:55;;;;;;;11.23;2.85;;;;;;;;;;4952125;29;20027;-44
2023/02/20 03:00:26;;;;;;;16.10;3.33;;;;;;;;;;4972087;28;20044;-44
2023/02/20 03:02:59;;;;;;;16.50;3.15;;;;;;;;;;4992937;28;20038;-43
2023/02/20 03:05:39;;;;;;;13.48;3.47;;;;;;;;;;4991568;28;20039;-44
2023/02/20 03:08:21;;;;;;;9.98;2.72;;;;;;;;;;4992900;28;20040;-43
2023/02/20 03:10:52;;;;;;;13.55;3.33;;;;;;;;;;4993023;28;20050;-43
2023/02/20 03:13:19;;;;;;;10.18;3.08;;;;;;;;;;4993051;28;20030;-44
2023/02/20 03:15:49;;;;;;;11.73;2.78;;;;;;;;;;4992750;28;20053;-44
2023/02/20 03:18:16;;;;;;;11.25;3.00;;;;;;;;;;4992809;28;20104;-44
2023/02/20 03:20:49;;;;;;;7.80;2.65;;;;;;;;;;4992987;28;20440;-43
2023/02/20 03:23:21;;;;;;;7.90;2.55;;;;;;;;;;4992693;28;20033;-44
2023/02/20 03:25:56;;;;;;;8.75;2.88;;;;;;;;;;4992580;28;20030;-43
2023/02/20 03:28:25;;;;;;;7.95;2.67;;;;;;;;;;4992552;28;20028;-44
2023/02/20 03:30:56;;;;;;;9.18;2.50;;;;;;;;;;4992567;28;20104;-43
2023/02/20 03:44:52;;;;;;;11.73;2.80;;;;;;;;;;4992600;28;20121;-44
2023/02/20 03:47:20;;;;;;;9.85;2.75;;;;;;;;;;4992357;28;20041;-44
2023/02/20 03:49:48;;;;;;;8.25;2.70;;;;;;;;;;4991939;28;20050;-42
2023/02/20 03:52:16;;;;;;;8.60;2.60;;;;;;;;;;4992090;28;20030;-43
2023/02/20 03:54:43;;;;;;;8.60;2.95;;;;;;;;;;4992222;28;20034;-42
2023/02/20 03:57:18;;;;;;;10.88;2.75;;;;;;;;;;4990722;28;20034;-42
2023/02/20 03:59:50;;;;;;;9.07;3.00;;;;;;;;;;4992046;28;20037;-43
2023/02/20 04:02:23;;;;;;;15.23;3.08;;;;;;;;;;4991997;28;20030;-42
2023/02/20 04:04:52;;;;;;;9.02;3.28;;;;;;;;;;4992083;28;20041;-42
2023/02/20 04:07:30;;;;;;;8.75;2.75;;;;;;;;;;4991952;28;20396;-43
2023/02/20 04:10:00;;;;;;;7.85;2.58;;;;;;;;;;4991889;28;20061;-43
2023/02/20 04:12:30;;;;;;;5.88;2.45;;;;;;;;;;4991887;28;20472;-42
2023/02/20 04:14:58;;;;;;;6.55;2.47;;;;;;;;;;4991752;28;20113;-43
2023/02/20 04:17:27;;;;;;;8.75;3.03;;;;;;;;;;4991874;28;20087;-42
2023/02/20 04:19:54;;;;;;;11.07;2.75;;;;;;;;;;4991757;28;20428;-43
2023/02/20 04:22:24;;;;;;;8.23;2.60;;;;;;;;;;4991740;28;20476;-42
2023/02/20 04:25:02;;;;;;;11.52;2.67;;;;;;;;;;4991678;28;20065;-43
2023/02/20 04:27:29;;;;;;;8.20;2.60;;;;;;;;;;4991622;28;20042;-42
2023/02/20 04:29:56;;;;;;;9.13;2.60;;;;;;;;;;4991518;28;20039;-43
2023/02/20 04:32:23;;;;;;;7.97;2.45;;;;;;;;;;4991646;28;20099;-43
2023/02/20 04:34:50;;;;;;;10.90;2.40;;;;;;;;;;4991520;28;20489;-42
2023/02/20 04:37:18;;;;;;;9.60;2.28;;;;;;;;;;4991546;28;20030;-43
2023/02/20 04:39:46;;;;;;;11.02;2.47;;;;;;;;;;4991599;28;20176;-42
2023/02/20 04:42:13;;;;;;;8.77;2.75;;;;;;;;;;4991287;28;20464;-43
2023/02/20 04:44:41;;;;;;;7.22;2.30;;;;;;;;;;4991606;28;20101;-43
2023/02/20 04:47:12;;;;;;;9.05;2.83;;;;;;;;;;4991334;28;20030;-44
2023/02/20 04:49:39;;;;;;;10.25;2.60;;;;;;;;;;4991411;28;20058;-43
2023/02/20 04:52:06;;;;;;;8.55;2.63;;;;;;;;;;4994156;28;20037;-43
2023/02/20 04:54:33;;;;;;;7.20;2.70;;;;;;;;;;4995576;28;20030;-43
2023/02/20 04:57:00;;;;;;;11.70;2.70;;;;;;;;;;4995349;28;20022;-42
2023/02/20 04:59:27;;;;;;;6.43;2.30;;;;;;;;;;4995473;28;20034;-42
2023/02/20 05:01:55;;;;;;;7.05;2.30;;;;;;;;;;4995439;28;20031;-42
2023/02/20 05:04:22;;;;;;;5.97;2.90;;;;;;;;;;4995263;28;20040;-42
2023/02/20 05:06:51;;;;;;;8.85;2.63;;;;;;;;;;4995154;28;20022;-42
2023/02/20 05:09:19;;;;;;;10.57;3.13;;;;;;;;;;4995091;28;20038;-42
2023/02/20 05:11:46;;;;;;;6.50;2.45;;;;;;;;;;4995172;28;20081;-43
2023/02/20 05:14:13;;;;;;;8.25;2.17;;;;;;;;;;4995229;28;20065;-42
2023/02/20 05:16:40;;;;;;;5.88;2.40;;;;;;;;;;4995091;28;20034;-43
2023/02/20 05:19:08;;;;;;;7.88;2.33;;;;;;;;;;4995090;28;20026;-42
2023/02/20 05:24:20;;;;;;;11.50;2.30;;;;;;;;;;4994964;28;20062;-43
2023/02/20 05:26:47;;;;;;;6.90;2.20;;;;;;;;;;4994897;28;20026;-42
2023/02/20 05:29:14;;;;;;;13.10;3.03;;;;;;;;;;4994854;28;20053;-43
2023/02/20 05:31:41;;;;;;;6.82;2.30;;;;;;;;;;4994869;28;20022;-43
2023/02/20 05:34:08;;;;;;;5.97;2.50;;;;;;;;;;4994843;28;20034;-43
2023/02/20 05:36:35;;;;;;;6.45;2.38;;;;;;;;;;4994708;28;20038;-43
2023/02/20 05:39:02;;;;;;;7.82;2.55;;;;;;;;;;4994757;28;20374;-43
2023/02/20 05:41:29;;;;;;;8.07;2.53;;;;;;;;;;4993405;28;20038;-43
2023/02/20 05:43:57;;;;;;;9.60;2.75;;;;;;;;;;4994659;28;20139;-43
2023/02/20 05:46:25;;;;;;;7.57;2.20;;;;;;;;;;4994331;28;20113;-43
2023/02/20 05:48:52;;;;;;;8.55;2.58;;;;;;;;;;4994288;28;20059;-42
2023/02/20 05:51:22;;;;;;;6.03;2.40;;;;;;;;;;4994479;28;20037;-43
2023/02/20 05:53:49;;;;;;;7.68;2.25;;;;;;;;;;4994485;28;20050;-42
2023/02/20 05:56:16;;;;;;;5.68;2.30;;;;;;;;;;4994284;28;20085;-42
2023/02/20 05:58:43;;;;;;;12.15;2.60;;;;;;;;;;4994264;28;20058;-42
2023/02/20 06:01:20;;;;;;;9.52;2.75;;;;;;;;;;4993245;28;20034;-42
2023/02/20 06:03:47;;;;;;;6.80;2.20;;;;;;;;;;4993407;28;20077;-42
2023/02/20 06:06:14;;;;;;;10.30;2.80;;;;;;;;;;4992701;28;20504;-42
2023/02/20 06:08:42;;;;;;;7.38;2.08;;;;;;;;;;4994118;28;20548;-42
2023/02/20 06:11:10;;;;;;;4.85;2.22;;;;;;;;;;4994091;28;20040;-43
2023/02/20 06:13:39;;;;;;;4.25;2.03;;;;;;;;;;4993661;28;20050;-43
2023/02/20 06:16:06;;;;;;;6.88;2.38;;;;;;;;;;4994094;28;20081;-42
2023/02/20 06:18:33;;;;;;;7.80;2.15;;;;;;;;;;4993986;28;20026;-42
2023/02/20 06:21:00;;;;;;;7.57;2.35;;;;;;;;;;4994033;28;20031;-43
2023/02/20 06:23:27;;;;;;;8.68;2.17;;;;;;;;;;4993972;28;20122;-43
2023/02/20 06:25:54;;;;;;;3.78;2.00;;;;;;;;;;4993833;28;20370;-43
2023/02/20 06:28:21;;;;;;;5.18;2.00;;;;;;;;;;4993657;28;20762;-43
2023/02/20 06:30:49;;;;;;;7.93;2.60;;;;;;;;;;4993779;28;20034;-43
2023/02/20 06:33:17;;;;;;;9.60;1.88;;;;;;;;;;5171097;22;20515;-39
2023/02/20 06:35:44;;;;;;;6.70;2.53;;;;;;;;;;5033684;28;20114;-39
2023/02/20 06:38:11;;;;;;;4.68;2.13;;;;;;;;;;5033198;28;20025;-39
2023/02/20 06:40:39;;;;;;;6.40;2.35;;;;;;;;;;5032961;28;20376;-39
2023/02/20 06:43:06;;;;;;;4.47;2.03;;;;;;;;;;5032819;28;20029;-39
2023/02/20 06:45:33;;;;;;;5.47;2.20;;;;;;;;;;5032866;28;20029;-39
2023/02/20 06:48:00;;;;;;;3.22;1.90;;;;;;;;;;5032784;28;20376;-39
2023/02/20 06:50:27;;;;;;;7.95;2.33;;;;;;;;;;5032803;28;20041;-39
2023/02/20 06:52:54;;;;;;;6.40;2.20;;;;;;;;;;5032575;28;20405;-39
2023/02/20 06:55:20;;;;;;;5.00;2.15;;;;;;;;;;5032695;28;20487;-39
2023/02/20 06:57:48;;;;;;;4.82;1.90;;;;;;;;;;5032682;28;20577;-39
2023/02/20 07:00:15;;;;;;;3.90;1.98;;;;;;;;;;5032562;28;20048;-39
2023/02/20 07:02:42;;;;;;;9.07;2.28;;;;;;;;;;5032435;28;20107;-39
2023/02/20 07:05:10;;;;;;;4.32;1.95;;;;;;;;;;5032550;28;20537;-39
2023/02/20 07:07:37;;;;;;;5.57;2.03;;;;;;;;;;5032558;28;20782;-39
2023/02/20 07:10:05;;;;;;;6.63;2.20;;;;;;;;;;5032327;28;20037;-38
2023/02/20 07:12:32;;;;;;;5.90;1.85;;;;;;;;;;5032280;28;20087;-39
2023/02/20 07:14:59;;;;;;;7.15;2.38;;;;;;;;;;5032309;28;20025;-40
2023/02/20 07:17:26;;;;;;;5.07;2.05;;;;;;;;;;5032300;28;20103;-39
2023/02/20 07:19:53;;;;;;;6.65;2.40;;;;;;;;;;5014436;28;20124;-40
2023/02/20 07:22:20;;;;;;;6.38;2.13;;;;;;;;;;5032099;28;20057;-41
2023/02/20 07:24:51;;;;;;;5.65;2.05;;;;;;;;;;5032128;28;20021;-39
2023/02/20 07:27:18;;;;;;;7.00;2.40;;;;;;;;;;5014316;28;20116;-39
2023/02/20 07:29:49;;;;;;;6.32;2.00;;;;;;;;;;5032047;28;20474;-39
2023/02/20 07:32:19;;;;;;;3.75;1.83;;;;;;;;;;5031776;28;20050;-40
2023/02/20 07:34:46;;;;;;;3.63;2.10;;;;;;;;;;5031815;28;20091;-40
2023/02/20 07:37:14;;;;;;;4.40;2.10;;;;;;;;;;5031947;28;20029;-40
2023/02/20 07:39:41;;;;;;;3.30;1.70;;;;;;;;;;5031881;28;20498;-39
2023/02/20 07:42:08;;;;;;;7.25;2.00;;;;;;;;;;5031734;28;20055;-39
2023/02/20 07:44:35;;;;;;;6.03;2.13;;;;;;;;;;5031748;28;20025;-39
2023/02/20 07:47:02;;;;;;;5.45;2.20;;;;;;;;;;5031692;28;20044;-39
2023/02/20 07:49:29;;;;;;;4.82;1.98;;;;;;;;;;5031557;28;20033;-39
2023/02/20 07:51:56;;;;;;;9.45;2.13;;;;;;;;;;5031586;28;20025;-39
2023/02/20 07:54:23;;;;;;;4.60;1.73;;;;;;;;;;5031672;28;20032;-40
2023/02/20 07:56:50;;;;;;;5.22;1.80;;;;;;;;;;5031647;28;20041;-39
2023/02/20 07:59:17;;;;;;;4.32;1.80;;;;;;;;;;5031503;28;20056;-40
2023/02/20 08:01:44;;;;;;;4.63;1.88;;;;;;;;;;5031436;28;20540;-39
2023/02/20 08:04:11;;;;;;;5.10;1.85;;;;;;;;;;5031435;28;20068;-40
2023/02/20 08:06:38;;;;;;;6.45;1.75;;;;;;;;;;5031450;28;20022;-40
2023/02/20 08:09:05;;;;;;;5.10;1.98;;;;;;;;;;5031243;28;20044;-40
2023/02/20 08:11:36;;;;;;;5.90;1.98;;;;;;;;;;5031294;28;20097;-39
2023/02/20 08:14:04;;;;;;;4.97;2.05;;;;;;;;;;5031281;28;20364;-39
2023/02/20 08:16:32;;;;;;;3.33;1.70;;;;;;;;;;5031303;28;20025;-40
2023/02/20 08:19:00;;;;;;;4.90;1.80;;;;;;;;;;5031333;28;20056;-39
2023/02/20 08:21:27;;;;;;;4.28;1.90;;;;;;;;;;5031058;28;20026;-39
2023/02/20 08:23:54;;;;;;;5.70;2.03;;;;;;;;;;5031178;28;20072;-39
2023/02/20 08:26:21;;;;;;;4.38;2.13;;;;;;;;;;5030800;28;20026;-39
2023/02/20 08:28:49;;;;;;;6.78;1.90;;;;;;;;;;5031062;28;20029;-39
2023/02/20 08:31:16;;;;;;;3.90;1.73;;;;;;;;;;5030807;28;20108;-40
2023/02/20 08:33:43;;;;;;;6.13;1.95;;;;;;;;;;5031042;28;20100;-39
2023/02/20 08:36:10;;;;;;;5.32;1.90;;;;;;;;;;5031118;28;20029;-39
2023/02/20 08:38:38;;;;;;;5.38;1.80;;;;;;;;;;5031393;28;20426;-40
2023/02/20 08:41:09;;;;;;;4.55;1.70;;;;;;;;;;5030993;28;20033;-40
2023/02/20 08:43:37;;;;;;;4.90;1.75;;;;;;;;;;5031042;28;20475;-40
2023/02/20 08:46:05;;;;;;;6.53;1.92;;;;;;;;;;5030969;28;20036;-39
2023/02/20 08:48:32;;;;;;;4.72;1.77;;;;;;;;;;5030949;28;20445;-39
2023/02/20 08:50:59;;;;;;;3.88;2.05;;;;;;;;;;5030843;28;20025;-41
2023/02/20 08:53:26;;;;;;;8.30;1.80;;;;;;;;;;5030945;28;20117;-40
2023/02/20 08:55:53;;;;;;;4.15;1.88;;;;;;;;;;5030898;28;20566;-39
2023/02/20 08:58:21;;;;;;;6.85;1.92;;;;;;;;;;5030782;28;20021;-41
2023/02/20 09:00:48;;;;;;;10.13;2.22;;;;;;;;;;5030915;28;20029;-41
2023/02/20 09:03:15;;;;;;;5.43;1.88;;;;;;;;;;5030957;28;20191;-40
2023/02/20 09:05:43;;;;;;;6.40;1.70;;;;;;;;;;5030877;28;20053;-40
2023/02/20 09:08:10;;;;;;;7.35;1.83;;;;;;;;;;5030782;28;20022;-39
2023/02/20 09:10:37;;;;;;;4.85;1.92;;;;;;;;;;5030603;28;20061;-39
2023/02/20 09:13:04;;;;;;;6.70;1.85;;;;;;;;;;5030612;28;20026;-39
2023/02/20 09:15:37;;;;;;;5.82;2.00;;;;;;;;;;5030680;28;20109;-39
2023/02/20 09:18:05;;;;;;;7.38;2.15;;;;;;;;;;5030927;28;20084;-39
2023/02/20 09:20:32;;;;;;;7.72;1.83;;;;;;;;;;5030576;28;20071;-38
2023/02/20 09:22:59;;;;;;;4.97;2.03;;;;;;;;;;5012771;28;20030;-39
2023/02/20 09:25:27;;;;;;;5.43;1.80;;;;;;;;;;5030616;28;20041;-39
2023/02/20 09:27:53;;;;;;;5.55;1.90;;;;;;;;;;5030629;28;20037;-39
2023/02/20 09:30:21;;;;;;;7.57;1.92;;;;;;;;;;5030531;28;20045;-39
2023/02/20 09:32:49;;;;;;;6.45;1.70;;;;;;;;;;5030276;28;20056;-40
2023/02/20 09:35:24;;;;;;;7.13;1.95;;;;;;;;;;5030771;28;20391;-39
2023/02/20 09:37:51;;;;;;;4.50;1.70;;;;;;;;;;5031027;28;20032;-39
2023/02/20 09:40:21;;;;;;;5.03;1.80;;;;;;;;;;5034138;28;20036;-39
2023/02/20 09:42:57;;;;;;;6.38;1.67;;;;;;;;;;5034013;28;20025;-40
2023/02/20 09:45:28;;;;;;;3.83;1.77;;;;;;;;;;5034062;28;20048;-39
2023/02/20 09:47:55;;;;;;;4.25;2.00;;;;;;;;;;5034009;28;20022;-39
2023/02/20 09:50:40;;;;;;;6.82;1.77;;;;;;;;;;5033963;28;20121;-39
2023/02/20 09:53:20;;;;;;;6.45;1.98;;;;;;;;;;5033753;28;20037;-39
2023/02/20 09:55:47;;;;;;;5.65;1.60;;;;;;;;;;5033948;28;20505;-39
2023/02/20 09:58:24;;;;;;;8.48;1.88;;;;;;;;;;5033813;28;20021;-39
2023/02/20 10:00:51;;;;;;;6.25;1.80;;;;;;;;;;5033719;28;20029;-41
2023/02/20 10:03:33;;;;;;;5.32;2.10;;;;;;;;;;5033746;28;20044;-39
2023/02/20 10:06:01;;;;;;;6.65;1.90;;;;;;;;;;5033597;28;20041;-39
2023/02/20 10:08:28;;;;;;;7.38;1.83;;;;;;;;;;5033585;28;20128;-41
2023/02/20 10:10:56;;;;;;;9.45;2.38;;;;;;;;;;5033473;28;20108;-39
2023/02/20 10:13:41;;;;;;;5.15;1.73;;;;;;;;;;5033572;28;20033;-40
2023/02/20 10:16:22;;;;;;;6.43;1.92;;;;;;;;;;5033562;28;20033;-39
2023/02/20 10:19:15;;;;;;;6.13;1.75;;;;;;;;;;5033436;28;20025;-40
2023/02/20 10:22:01;;;;;;;6.30;2.25;;;;;;;;;;4996148;28;20115;-40
2023/02/20 10:24:28;;;;;;;10.90;1.88;;;;;;;;;;5015621;28;20037;-39
2023/02/20 10:26:57;;;;;;;9.40;2.20;;;;;;;;;;5033323;28;20052;-40
2023/02/20 10:29:26;;;;;;;7.90;1.83;;;;;;;;;;5033194;28;20103;-40
2023/02/20 10:32:09;;;;;;;10.50;2.30;;;;;;;;;;5032880;28;20073;-39
2023/02/20 10:34:40;;;;;;;8.40;2.53;;;;;;;;;;5033353;28;20057;-39
2023/02/20 10:37:20;;;;;;;9.40;2.13;;;;;;;;;;5033160;28;20029;-40
2023/02/20 10:39:58;;;;;;;10.07;2.20;;;;;;;;;;5033066;28;20030;-40
2023/02/20 10:42:28;;;;;;;8.75;2.13;;;;;;;;;;5032909;28;20030;-40
2023/02/20 10:45:05;;;;;;;7.65;2.15;;;;;;;;;;5032980;28;20025;-40
2023/02/20 10:47:45;;;;;;;7.65;2.15;;;;;;;;;;5033005;28;20028;-39
2023/02/20 10:50:19;;;;;;;5.88;2.10;;;;;;;;;;5032675;28;20064;-39
2023/02/20 10:52:51;;;;;;;10.15;2.05;;;;;;;;;;5032921;28;20018;-39
2023/02/20 10:55:21;;;;;;;8.43;2.10;;;;;;;;;;5032912;28;20022;-39
2023/02/20 10:57:51;;;;;;;7.10;2.30;;;;;;;;;;5032854;28;20104;-39
2023/02/20 11:00:31;;;;;;;8.23;1.90;;;;;;;;;;5032926;28;20029;-39
2023/02/20 11:03:04;;;;;;;8.20;2.42;;;;;;;;;;5032648;28;20037;-39
2023/02/20 11:05:34;;;;;;;7.00;2.55;;;;;;;;;;5032864;28;20021;-40
2023/02/20 11:08:00;;;;;;;9.82;2.30;;;;;;;;;;5032668;28;20034;-38
2023/02/20 11:10:29;;;;;;;8.40;2.28;;;;;;;;;;5032697;28;20041;-39
2023/02/20 11:13:01;;;;;;;7.70;2.00;;;;;;;;;;5032487;28;20033;-41
2023/02/20 11:15:33;;;;;;;9.02;2.30;;;;;;;;;;5032645;28;20501;-39
2023/02/20 11:17:59;;;;;;;;;;;;;;;;;;5033065;28;20083;-39
2023/02/20 11:20:37;;;;;;;8.15;2.00;;;;;;;;;;5032422;28;19916;-39
2023/02/20 11:23:05;;;;;;;8.63;2.45;;;;;;;;;;5032468;28;20031;-41
2023/02/20 11:25:33;;;;;;;6.18;2.10;;;;;;;;;;5014721;28;20450;-39
2023/02/20 11:28:18;;;;;;;6.85;2.03;;;;;;;;;;5032395;28;20025;-39
2023/02/20 11:30:46;;;;;;;9.52;2.47;;;;;;;;;;5032141;28;20041;-41
2023/02/20 11:33:24;;;;;;;8.13;1.80;;;;;;;;;;5032128;28;20410;-40
2023/02/20 11:35:56;;;;;;;5.32;1.80;;;;;;;;;;5032317;28;20018;-41
2023/02/20 11:38:23;;;;;;;7.05;2.10;;;;;;;;;;5032197;28;20037;-41
2023/02/20 11:40:54;;;;;;;12.52;2.30;;;;;;;;;;5032111;28;20067;-41
2023/02/20 11:43:27;;;;;;;8.63;2.40;;;;;;;;;;5014392;28;20069;-40
2023/02/20 11:45:53;;;;;;;;;;;;;;;;;;5032467;28;20075;-41
2023/02/20 11:48:20;;;;;;;7.60;2.40;;;;;;;;;;5032093;28;19920;-40
2023/02/20 11:50:51;;;;;;;7.95;2.33;;;;;;;;;;5031890;28;20030;-41
2023/02/20 11:53:18;;;;;;;6.78;2.00;;;;;;;;;;5031955;28;20506;-40
2023/02/20 11:55:45;;;;;;;9.45;2.30;;;;;;;;;;5031839;28;20048;-39
2023/02/20 11:58:25;;;;;;;10.50;2.15;;;;;;;;;;5030633;28;20113;-41
2023/02/20 12:00:54;;;;;;;9.20;2.65;;;;;;;;;;5024458;28;20022;-41
2023/02/20 12:03:29;;;;;;;8.27;2.40;;;;;;;;;;5012202;28;20029;-42
2023/02/20 12:05:56;;;;;;;14.35;2.63;;;;;;;;;;5012103;28;20506;-41
2023/02/20 12:08:39;;;;;;;7.75;2.38;;;;;;;;;;5011921;28;20033;-41
2023/02/20 12:11:12;;;;;;;7.05;2.45;;;;;;;;;;5011885;28;20045;-41
2023/02/20 12:13:43;;;;;;;8.25;2.10;;;;;;;;;;5011917;28;20100;-41
2023/02/20 12:16:30;;;;;;;7.15;2.42;;;;;;;;;;5011981;28;20022;-41
2023/02/20 12:19:02;;;;;;;9.27;2.15;;;;;;;;;;5011835;28;20052;-41
2023/02/20 12:21:38;;;;;;;6.63;2.30;;;;;;;;;;5011511;28;20609;-41
2023/02/20 12:24:14;;;;;;;11.13;2.33;;;;;;;;;;5011638;28;20038;-41
2023/02/20 12:26:53;;;;;;;9.38;1.95;;;;;;;;;;5011738;28;20022;-41
2023/02/20 12:29:26;;;;;;;8.13;2.38;;;;;;;;;;5011600;28;20112;-41
2023/02/20 12:32:14;;;;;;;9.30;2.55;;;;;;;;;;5011262;28;20050;-41
2023/02/20 12:34:49;;;;;;;9.60;2.63;;;;;;;;;;5011536;28;20030;-41
2023/02/20 12:37:16;;;;;;;5.70;2.25;;;;;;;;;;5011627;28;20034;-41
2023/02/20 12:39:50;;;;;;;7.55;2.40;;;;;;;;;;5011476;28;20502;-41
2023/02/20 12:42:29;;;;;;;10.10;2.22;;;;;;;;;;5011514;28;20044;-41
2023/02/20 12:44:56;;;;;;;8.00;2.00;;;;;;;;;;5011477;28;20018;-41
2023/02/20 12:47:29;;;;;;;5.53;2.05;;;;;;;;;;5011519;28;20026;-41
2023/02/20 12:49:56;;;;;;;9.50;2.30;;;;;;;;;;5011376;28;20045;-41
2023/02/20 12:52:33;;;;;;;10.15;2.60;;;;;;;;;;5011332;28;20037;-41
2023/02/20 12:55:00;;;;;;;10.52;2.30;;;;;;;;;;5011431;28;20038;-41
2023/02/20 12:57:42;;;;;;;5.72;2.20;;;;;;;;;;5011276;28;20034;-41
2023/02/20 13:00:29;;;;;;;10.73;2.70;;;;;;;;;;5011370;28;20034;-41
2023/02/20 13:02:59;;;;;;;7.85;2.38;;;;;;;;;;4983696;28;20073;-42
2023/02/20 13:05:27;;;;;;;9.07;2.47;;;;;;;;;;5011207;28;20082;-41
2023/02/20 13:07:56;;;;;;;10.80;2.30;;;;;;;;;;5011227;28;20018;-42
2023/02/20 13:10:24;;;;;;;9.38;2.33;;;;;;;;;;5011152;28;20045;-41
2023/02/20 13:12:52;;;;;;;7.65;2.30;;;;;;;;;;5013252;28;20060;-41
2023/02/20 13:15:37;;;;;;;11.13;2.42;;;;;;;;;;5014860;28;20030;-41
2023/02/20 13:18:16;;;;;;;10.75;2.08;;;;;;;;;;5014897;28;20029;-41
2023/02/20 13:20:55;;;;;;;13.52;2.58;;;;;;;;;;5014660;28;20435;-42
2023/02/20 13:23:22;;;;;;;9.27;2.30;;;;;;;;;;5014735;28;20034;-41
2023/02/20 13:25:49;;;;;;;10.45;2.40;;;;;;;;;;5014741;28;20076;-42
2023/02/20 13:28:26;;;;;;;15.80;2.60;;;;;;;;;;5014703;28;20034;-42
2023/02/20 13:31:16;;;;;;;8.63;2.80;;;;;;;;;;5014454;28;20052;-41
2023/02/20 13:33:45;;;;;;;17.70;3.03;;;;;;;;;;4977921;28;20088;-41
2023/02/20 13:36:27;;;;;;;12.98;2.60;;;;;;;;;;5014561;28;20018;-41
2023/02/20 13:39:12;;;;;;;10.43;2.55;;;;;;;;;;5014545;28;20065;-41
2023/02/20 13:42:05;;;;;;;10.32;2.70;;;;;;;;;;5014349;28;20080;-41
2023/02/20 13:44:42;;;;;;;15.60;3.13;;;;;;;;;;5011183;28;20121;-42
2023/02/20 13:47:16;;;;;;;16.30;3.28;;;;;;;;;;5014410;28;20813;-42
2023/02/20 13:52:34;;;;;;;10.10;2.83;;;;;;;;;;5014034;28;20049;-41
2023/02/20 13:55:12;;;;;;;12.85;2.53;;;;;;;;;;5014159;28;20079;-42
2023/02/20 13:57:52;;;;;;;14.32;2.75;;;;;;;;;;5014243;28;20152;-41
2023/02/20 14:00:25;;;;;;;10.60;2.75;;;;;;;;;;5013981;28;20034;-41
2023/02/20 14:02:53;;;;;;;13.45;2.67;;;;;;;;;;5014040;28;20026;-41
2023/02/20 14:05:22;;;;;;;13.05;3.00;;;;;;;;;;5013960;28;20029;-41
2023/02/20 14:07:49;;;;;;;20.90;3.55;;;;;;;;;;5013919;28;20105;-41
2023/02/20 14:10:18;;;;;;;13.90;3.20;;;;;;;;;;4996213;28;20038;-42
2023/02/20 14:12:47;;;;;;;14.95;3.28;;;;;;;;;;5013981;28;20030;-41
2023/02/20 14:15:14;;;;;;;16.48;2.97;;;;;;;;;;5013708;28;20083;-41
2023/02/20 14:17:42;;;;;;;13.30;3.35;;;;;;;;;;5013709;28;20038;-41
2023/02/20 14:20:18;;;;;;;14.82;3.17;;;;;;;;;;5013662;28;20110;-42
2023/02/20 14:22:45;;;;;;;17.77;3.15;;;;;;;;;;5013492;28;20391;-41
2023/02/20 14:25:12;;;;;;;13.82;2.97;;;;;;;;;;5012939;28;20037;-41
2023/02/20 14:27:40;;;;;;;17.05;3.35;;;;;;;;;;5013581;28;20061;-41
2023/02/20 14:30:07;;;;;;;16.30;3.08;;;;;;;;;;5013414;28;20036;-41
2023/02/20 14:32:35;;;;;;;15.98;2.97;;;;;;;;;;5013150;28;20192;-41
2023/02/20 14:35:08;;;;;;;15.10;3.70;;;;;;;;;;5013321;28;20026;-41
2023/02/20 14:37:53;;;;;;;14.43;3.47;;;;;;;;;;5013355;28;20489;-41
2023/02/20 14:40:26;;;;;;;18.70;3.42;;;;;;;;;;5013219;28;20061;-41
2023/02/20 14:43:00;;;;;;;15.30;3.67;;;;;;;;;;5013253;28;20061;-41
2023/02/20 14:45:27;;;;;;;12.32;3.75;;;;;;;;;;5013097;28;20392;-42
2023/02/20 14:47:58;;;;;;;16.75;4.47;;;;;;;;;;5013086;28;20033;-42
2023/02/20 14:50:32;;;;;;;16.58;3.85;;;;;;;;;;5012955;28;20405;-41
2023/02/20 14:53:22;;;;;;;16.90;3.65;;;;;;;;;;5012997;28;20395;-41
2023/02/20 14:55:49;;;;;;;17.02;3.67;;;;;;;;;;5013021;28;20030;-41
2023/02/20 14:58:19;;;;;;;20.92;4.22;;;;;;;;;;5012801;28;20033;-42
2023/02/20 15:00:52;;;;;;;19.95;3.97;;;;;;;;;;5012801;28;20029;-41
2023/02/20 15:03:23;;;;;;;19.15;3.83;;;;;;;;;;5012739;28;20472;-41
2023/02/20 15:05:50;;;;;;;19.13;3.50;;;;;;;;;;5012734;28;20036;-41
2023/02/20 15:08:17;;;;;;;13.77;3.60;;;;;;;;;;5012732;28;20034;-41
2023/02/20 15:10:49;;;;;;;23.48;4.50;;;;;;;;;;5012488;28;20042;-41
2023/02/20 15:13:18;;;;;;;20.35;3.83;;;;;;;;;;5012612;28;20574;-41
2023/02/20 15:15:46;;;;;;;20.58;3.92;;;;;;;;;;5012553;28;20139;-41
2023/02/20 15:18:16;;;;;;;24.90;4.15;;;;;;;;;;5012523;28;20026;-41